Time;durP1;ratioP1;P1;durP2;ratioP2;P2;SDS_P1;SDS_P2;PMS_P1;PMS_P2;Temp;Humidity;BMP_temperature;BMP_pressure;BME280_temperature;BME280_humidity;BME280_pressure;Samples;Min_cycle;Max_cycle;Signal;HPM_P1;HPM_P2
2022/04/27 00:01:48;;;;;;;13.90;12.60;;;;;;;2.26;100.00;161159.94;5031444;28;20099;-58
2022/04/27 00:04:14;;;;;;;14.95;12.07;;;;;;;2.22;100.00;161151.88;5033241;28;20022;-58
2022/04/27 00:06:40;;;;;;;22.27;11.73;;;;;;;2.19;100.00;161143.84;5031658;28;20041;-57
2022/04/27 00:09:06;;;;;;;19.45;14.93;;;;;;;2.14;100.00;161129.06;5033422;28;20033;-58
2022/04/27 00:11:31;;;;;;;17.48;13.57;;;;;;;2.10;100.00;161118.31;5031296;28;20068;-58
2022/04/27 00:13:58;;;;;;;15.27;12.30;;;;;;;2.05;100.00;161106.22;5033306;28;20041;-58
2022/04/27 00:16:24;;;;;;;20.13;14.98;;;;;;;2.00;100.00;161094.19;5031368;28;20045;-58
2022/04/27 00:18:49;;;;;;;17.63;14.50;;;;;;;1.96;100.00;161083.44;5032902;28;20484;-57
2022/04/27 00:21:14;;;;;;;16.15;14.35;;;;;;;1.90;100.00;161068.66;5030891;28;20150;-58
2022/04/27 00:23:40;;;;;;;19.52;15.15;;;;;;;1.90;100.00;161067.34;5033043;28;20036;-58
2022/04/27 00:26:05;;;;;;;21.75;16.20;;;;;;;1.89;100.00;161066.00;5031465;28;20144;-58
2022/04/27 00:28:31;;;;;;;31.27;16.80;;;;;;;1.88;100.00;161063.31;5032901;28;20134;-57
2022/04/27 00:30:56;;;;;;;22.48;14.88;;;;;;;1.93;100.00;161074.03;5031357;28;20525;-58
2022/04/27 00:33:21;;;;;;;25.33;14.68;;;;;;;1.92;100.00;161071.34;5032269;28;20022;-57
2022/04/27 00:35:47;;;;;;;24.10;12.52;;;;;;;1.89;100.00;161066.00;5031535;28;20393;-57
2022/04/27 00:38:12;;;;;;;13.57;11.73;;;;;;;1.78;100.00;161036.47;5033149;28;20464;-58
2022/04/27 00:40:38;;;;;;;20.98;13.88;;;;;;;1.73;100.00;161023.06;5030801;28;20361;-57
2022/04/27 00:43:03;;;;;;;17.67;13.75;;;;;;;1.62;100.00;160993.53;5032773;28;20144;-57
2022/04/27 00:45:28;;;;;;;19.40;14.80;;;;;;;1.63;100.00;160996.22;5030569;28;20572;-57
2022/04/27 00:47:54;;;;;;;16.23;14.55;;;;;;;1.54;100.00;160974.75;5032331;28;20029;-57
2022/04/27 00:50:19;;;;;;;15.73;14.07;;;;;;;1.47;100.00;160955.97;5032627;28;20025;-57
2022/04/27 00:52:45;;;;;;;16.35;14.57;;;;;;;1.40;100.00;160937.19;5030830;28;20037;-58
2022/04/27 00:55:10;;;;;;;27.58;17.63;;;;;;;1.35;100.00;160923.78;5032127;28;20422;-58
2022/04/27 00:57:39;;;;;;;17.80;15.93;;;;;;;1.31;100.00;160913.03;5030808;28;20045;-58
2022/04/27 01:00:05;;;;;;;;;;;;;;;1.31;100.00;160913.03;5032823;28;20104;-59
2022/04/27 01:02:31;;;;;;;18.38;16.05;;;;;;;1.29;100.00;160909.00;5030330;28;19913;-59
2022/04/27 01:04:56;;;;;;;20.05;16.90;;;;;;;1.25;100.00;160899.63;5032552;28;20037;-59
2022/04/27 01:07:24;;;;;;;25.20;14.55;;;;;;;1.21;100.00;160887.53;5030576;28;20053;-58
2022/04/27 01:09:50;;;;;;;22.08;15.38;;;;;;;1.18;100.00;160880.84;5031901;28;20101;-58
2022/04/27 01:12:16;;;;;;;18.95;13.50;;;;;;;1.14;100.00;160870.13;5030653;28;20037;-58
2022/04/27 01:14:47;;;;;;;21.73;17.23;;;;;;;1.09;100.00;160858.06;5032118;28;20112;-58
2022/04/27 01:17:13;;;;;;;18.48;15.15;;;;;;;1.01;100.00;160836.59;5030315;28;20428;-58
2022/04/27 01:19:39;;;;;;;23.85;17.25;;;;;;;1.07;100.00;160851.38;5031621;28;20029;-58
2022/04/27 01:22:05;;;;;;;19.58;16.20;;;;;;;1.10;100.00;160860.75;5030234;28;20049;-58
2022/04/27 01:24:30;;;;;;;17.58;15.55;;;;;;;1.10;100.00;160859.38;5031326;28;20033;-58
2022/04/27 01:26:55;;;;;;;14.95;13.07;;;;;;;1.06;100.00;160848.69;5030425;28;20095;-58
2022/04/27 01:29:22;;;;;;;18.35;15.48;;;;;;;1.04;100.00;160843.28;5031673;28;20037;-57
2022/04/27 01:31:48;;;;;;;16.65;13.48;;;;;;;0.94;100.00;160819.16;5029607;28;20578;-58
2022/04/27 01:34:14;;;;;;;26.55;17.38;;;;;;;0.88;100.00;160803.06;5030950;28;20037;-58
2022/04/27 01:36:39;;;;;;;31.52;19.65;;;;;;;0.78;100.00;160776.28;5029778;28;20029;-58
2022/04/27 01:39:06;;;;;;;22.60;17.02;;;;;;;0.82;100.00;160786.97;5031217;28;20488;-58
2022/04/27 01:41:32;;;;;;;25.27;20.48;;;;;;;0.79;100.00;160778.91;5030130;28;20038;-58
2022/04/27 01:44:00;;;;;;;20.38;16.63;;;;;;;0.77;100.00;160773.59;5030237;28;20108;-58
2022/04/27 01:46:26;;;;;;;19.57;16.20;;;;;;;0.75;100.00;160768.22;5029426;28;20448;-58
2022/04/27 01:48:52;;;;;;;19.08;15.73;;;;;;;0.72;100.00;160760.13;5031614;28;20448;-58
2022/04/27 01:51:18;;;;;;;30.25;16.35;;;;;;;0.69;100.00;160752.13;5029863;28;20056;-58
2022/04/27 01:56:28;;;;;;;121.90;17.25;;;;;;;0.60;100.00;160730.66;5029484;28;20076;-58
2022/04/27 01:58:54;;;;;;;24.63;18.42;;;;;;;0.53;100.00;160711.91;5031362;28;20468;-58
2022/04/27 02:01:21;;;;;;;23.23;17.75;;;;;;;0.49;100.00;160701.16;5029045;28;20041;-58
2022/04/27 02:03:47;;;;;;;20.92;17.13;;;;;;;0.46;100.00;160693.13;5031306;28;20032;-58
2022/04/27 02:06:16;;;;;;;18.80;16.27;;;;;;;0.51;100.00;160705.22;5029750;28;20041;-58
2022/04/27 02:08:42;;;;;;;103.05;14.82;;;;;;;0.50;100.00;160702.53;5030601;28;20389;-58
2022/04/27 02:11:07;;;;;;;51.65;12.77;;;;;;;0.49;100.00;160699.84;5029640;28;20033;-58
2022/04/27 02:13:33;;;;;;;26.15;10.48;;;;;;;0.41;100.00;160679.75;5031208;28;20021;-58
2022/04/27 02:16:00;;;;;;;17.35;14.23;;;;;;;0.31;100.00;160655.59;5029128;28;20042;-58
2022/04/27 02:18:26;;;;;;;20.88;14.32;;;;;;;0.24;100.00;160635.47;5030636;28;20469;-58
2022/04/27 02:20:51;;;;;;;17.88;14.73;;;;;;;0.23;100.00;160634.16;5029521;28;20144;-58
2022/04/27 02:23:19;;;;;;;16.95;15.32;;;;;;;0.18;100.00;160620.78;5030935;28;20021;-57
2022/04/27 02:25:45;;;;;;;25.55;16.98;;;;;;;0.16;100.00;160615.41;5029192;28;20057;-57
2022/04/27 02:28:11;;;;;;;18.35;14.77;;;;;;;0.12;100.00;160604.66;5030719;28;20028;-58
2022/04/27 02:30:36;;;;;;;45.85;16.42;;;;;;;0.12;100.00;160606.00;5028396;28;20037;-58
2022/04/27 02:33:02;;;;;;;75.40;16.00;;;;;;;0.04;100.00;160583.25;5030812;28;20025;-58
2022/04/27 02:35:28;;;;;;;18.98;13.85;;;;;;;0.09;100.00;160596.63;5030886;28;20083;-58
2022/04/27 02:37:53;;;;;;;15.55;12.73;;;;;;;0.09;100.00;160596.63;5028965;28;20037;-58
2022/04/27 02:40:18;;;;;;;12.05;10.43;;;;;;;0.06;100.00;160588.56;5030382;28;20032;-57
2022/04/27 02:42:44;;;;;;;17.25;9.73;;;;;;;0.02;100.00;160577.88;5029123;28;20045;-58
2022/04/27 02:45:09;;;;;;;20.90;14.07;;;;;;;-0.04;100.00;160563.13;5030230;28;20071;-58
2022/04/27 02:47:34;;;;;;;15.13;12.70;;;;;;;-0.07;100.00;160555.06;5028617;28;20095;-58
2022/04/27 02:52:47;;;;;;;16.13;13.75;;;;;;;-0.03;100.00;160567.13;5028615;28;20094;-58
2022/04/27 02:55:12;;;;;;;13.48;9.98;;;;;;;-0.02;100.00;160569.81;5030670;28;20137;-57
2022/04/27 02:57:38;;;;;;;18.35;16.25;;;;;;;-0.03;100.00;160567.13;5029065;28;20041;-58
2022/04/27 03:00:04;;;;;;;20.75;16.92;;;;;;;-0.09;100.00;160551.06;5029862;28;20017;-58
2022/04/27 03:02:30;;;;;;;21.33;16.33;;;;;;;-0.05;100.00;160561.81;5028553;28;20037;-57
2022/04/27 03:04:55;;;;;;;22.70;18.60;;;;;;;-0.06;100.00;160559.13;5030695;28;20024;-58
2022/04/27 03:07:20;;;;;;;21.65;17.42;;;;;;;-0.18;100.00;160528.28;5028812;28;20045;-58
2022/04/27 03:09:47;;;;;;;28.63;18.17;;;;;;;-0.05;100.00;160561.81;5030555;28;20477;-57
2022/04/27 03:12:12;;;;;;;31.98;19.10;;;;;;;-0.06;100.00;160557.75;5029016;28;20412;-58
2022/04/27 03:14:38;;;;;;;23.50;9.18;;;;;;;-0.09;100.00;160549.72;5029667;28;20026;-58
2022/04/27 03:17:03;;;;;;;20.65;12.30;;;;;;;-0.14;100.00;160536.28;5028651;28;20038;-58
2022/04/27 03:19:29;;;;;;;31.17;23.85;;;;;;;-0.14;100.00;160536.28;5030135;28;20465;-57
2022/04/27 03:21:54;;;;;;;29.02;20.15;;;;;;;-0.10;100.00;160548.38;5028874;28;20053;-57
2022/04/27 03:24:19;;;;;;;26.65;19.10;;;;;;;-0.07;100.00;160556.44;5030090;28;20025;-57
2022/04/27 03:26:47;;;;;;;11.52;9.85;;;;;;;-0.09;100.00;160551.06;5028565;28;20049;-57
2022/04/27 03:29:13;;;;;;;13.73;11.68;;;;;;;-0.17;100.00;160529.59;5030169;28;20075;-57
2022/04/27 03:31:38;;;;;;;21.48;14.98;;;;;;;-0.20;100.00;160521.59;5028276;28;20041;-58
2022/04/27 03:34:03;;;;;;;14.88;12.88;;;;;;;-0.27;100.00;160504.16;5030641;28;20029;-58
2022/04/27 03:36:29;;;;;;;15.80;12.95;;;;;;;-0.32;100.00;160492.09;5028457;28;20041;-58
2022/04/27 03:38:54;;;;;;;18.98;16.23;;;;;;;-0.37;100.00;160478.72;5030022;28;20071;-58
2022/04/27 03:41:20;;;;;;;28.13;21.65;;;;;;;-0.42;100.00;160465.34;5028892;28;20400;-58
2022/04/27 03:43:50;;;;;;;286.48;31.58;;;;;;;-0.42;100.00;160465.34;5029567;28;20376;-58
2022/04/27 03:46:16;;;;;;;49.38;10.65;;;;;;;-0.48;100.00;160449.22;5028298;28;20052;-58
2022/04/27 03:48:41;;;;;;;21.75;13.02;;;;;;;-0.54;100.00;160433.16;5030269;28;20041;-57
2022/04/27 03:51:07;;;;;;;231.77;24.08;;;;;;;-0.63;100.00;160409.06;5028760;28;20048;-57
2022/04/27 03:53:32;;;;;;;108.35;19.67;;;;;;;-0.63;100.00;160410.38;5029214;28;20060;-58
2022/04/27 03:55:58;;;;;;;233.75;20.33;;;;;;;-0.66;100.00;160403.69;5029214;28;20120;-58
2022/04/27 03:58:23;;;;;;;280.85;27.63;;;;;;;-0.68;100.00;160398.34;5033182;28;20037;-58
2022/04/27 04:00:48;;;;;;;25.90;11.57;;;;;;;-0.71;100.00;160390.28;5031350;28;20037;-57
2022/04/27 04:03:14;;;;;;;12.82;11.48;;;;;;;-0.72;100.00;160387.63;5033757;28;20524;-57
2022/04/27 04:05:39;;;;;;;25.40;15.23;;;;;;;-0.69;100.00;160395.66;5031823;28;20021;-57
2022/04/27 04:08:05;;;;;;;42.50;14.07;;;;;;;-0.67;100.00;160399.69;5032711;28;20026;-57
2022/04/27 04:10:31;;;;;;;23.88;17.75;;;;;;;-0.68;100.00;160398.34;5033338;28;20044;-58
2022/04/27 04:12:56;;;;;;;45.22;14.52;;;;;;;-0.67;100.00;160399.69;5030996;28;20049;-56
2022/04/27 04:15:22;;;;;;;16.17;14.00;;;;;;;-0.68;100.00;160398.34;5031964;28;20025;-54
2022/04/27 04:17:47;;;;;;;17.92;16.02;;;;;;;-0.68;100.00;160398.34;5031496;28;20079;-57
2022/04/27 04:20:19;;;;;;;29.33;23.20;;;;;;;-0.68;100.00;160398.34;5033140;28;20496;-58
2022/04/27 04:22:46;;;;;;;20.42;18.23;;;;;;;-0.65;100.00;160406.38;5031152;28;20033;-58
2022/04/27 04:30:40;;;;;;;13.93;12.45;;;;;;;-0.61;100.00;160414.41;5030898;28;20052;-58
2022/04/27 04:33:06;;;;;;;15.50;13.98;;;;;;;-0.62;100.00;160413.06;5032844;28;20136;-57
2022/04/27 04:35:32;;;;;;;27.00;19.45;;;;;;;-0.66;100.00;160403.69;5032518;28;20030;-58
2022/04/27 04:37:57;;;;;;;21.83;18.35;;;;;;;-0.65;100.00;160406.38;5030868;28;20042;-58
2022/04/27 04:40:22;;;;;;;25.30;19.80;;;;;;;-0.62;100.00;160411.72;5032774;28;20037;-57
2022/04/27 04:42:48;;;;;;;16.70;14.88;;;;;;;-0.62;100.00;160413.06;5031234;28;20083;-57
2022/04/27 04:45:13;;;;;;;21.35;17.05;;;;;;;-0.60;100.00;160417.09;5032415;28;20017;-57
2022/04/27 04:47:42;;;;;;;23.05;17.15;;;;;;;-0.60;100.00;160417.09;5031039;28;20092;-57
2022/04/27 04:50:08;;;;;;;25.75;21.40;;;;;;;-0.59;100.00;160419.78;5018017;28;20041;-58
2022/04/27 04:52:33;;;;;;;25.60;20.08;;;;;;;-0.58;100.00;160422.47;5030397;28;20041;-57
2022/04/27 04:54:58;;;;;;;36.30;24.33;;;;;;;-0.57;100.00;160425.13;5032437;28;20021;-57
2022/04/27 04:57:24;;;;;;;43.10;27.00;;;;;;;-0.51;100.00;160441.22;5029950;28;20084;-57
2022/04/27 04:59:50;;;;;;;43.63;29.13;;;;;;;-0.44;100.00;160459.97;5031933;28;20022;-58
2022/04/27 05:02:15;;;;;;;43.72;29.33;;;;;;;-0.37;100.00;160478.72;5030341;28;20049;-57
2022/04/27 05:04:40;;;;;;;39.92;26.73;;;;;;;-0.26;100.00;160505.53;5031396;28;20043;-57
2022/04/27 05:07:06;;;;;;;45.05;29.92;;;;;;;-0.17;100.00;160529.59;5029676;28;20108;-57
2022/04/27 05:09:31;;;;;;;55.85;33.95;;;;;;;-0.11;100.00;160545.69;5030092;28;20041;-57
2022/04/27 05:11:56;;;;;;;50.83;31.92;;;;;;;-0.06;100.00;160559.13;5029201;28;20052;-57
2022/04/27 05:14:22;;;;;;;55.33;30.77;;;;;;;0.04;100.00;160583.25;5030674;28;20389;-58
2022/04/27 05:16:47;;;;;;;41.03;25.40;;;;;;;0.08;100.00;160593.94;5029526;28;20068;-58
2022/04/27 05:19:12;;;;;;;47.40;30.35;;;;;;;0.15;100.00;160614.03;5030292;28;20359;-57
2022/04/27 05:21:38;;;;;;;42.72;30.42;;;;;;;0.21;100.00;160628.78;5029399;28;20056;-58
2022/04/27 05:24:04;;;;;;;34.35;26.73;;;;;;;0.25;100.00;160638.16;5031183;28;20017;-57
2022/04/27 05:26:29;;;;;;;33.28;26.08;;;;;;;0.30;100.00;160651.56;5027885;28;20112;-57
2022/04/27 05:31:58;;;;;;;48.95;28.08;;;;;;;0.54;100.00;160714.59;5029251;28;20519;-56
2022/04/27 05:34:25;;;;;;;34.42;28.30;;;;;;;0.59;100.00;160727.97;5029534;28;20030;-56
2022/04/27 05:36:50;;;;;;;38.55;28.17;;;;;;;0.72;100.00;160761.50;5028964;28;20052;-56
2022/04/27 05:39:18;;;;;;;45.60;26.45;;;;;;;0.81;100.00;160784.28;5030517;28;20025;-56
2022/04/27 05:41:44;;;;;;;39.38;28.25;;;;;;;0.92;100.00;160813.81;5028416;28;20092;-56
2022/04/27 05:44:09;;;;;;;40.72;29.75;;;;;;;1.10;100.00;160859.38;5030274;28;20029;-56
2022/04/27 05:46:38;;;;;;;38.05;30.52;;;;;;;1.27;100.00;160903.63;5028895;28;20049;-56
2022/04/27 05:49:04;;;;;;;47.47;31.65;;;;;;;1.44;100.00;160947.94;5029859;28;20037;-56
2022/04/27 05:51:29;;;;;;;40.53;31.83;;;;;;;1.61;100.00;160992.19;5027395;28;20439;-56
2022/04/27 05:53:54;;;;;;;40.10;30.45;;;;;;;1.82;100.00;161047.22;5030639;28;20018;-56
2022/04/27 05:56:20;;;;;;;42.75;28.88;;;;;;;1.99;100.00;161090.13;5028466;28;20025;-57
2022/04/27 05:58:45;;;;;;;43.42;33.90;;;;;;;2.21;100.00;161149.19;5030095;28;20020;-57
2022/04/27 06:01:11;;;;;;;49.22;32.88;;;;;;;2.47;100.00;161216.31;5030256;28;20057;-57
2022/04/27 06:03:37;;;;;;;37.10;28.98;;;;;;;2.71;100.00;161278.09;5027601;28;20540;-57
2022/04/27 06:06:03;;;;;;;46.58;32.05;;;;;;;2.89;100.00;161325.09;5029825;28;20057;-57
2022/04/27 06:08:28;;;;;;;38.63;30.10;;;;;;;3.07;100.00;161370.72;5028618;28;20041;-57
2022/04/27 06:10:53;;;;;;;41.42;28.52;;;;;;;3.24;100.00;161416.41;5028607;28;20029;-57
2022/04/27 06:13:19;;;;;;;50.63;30.70;;;;;;;3.44;100.00;161467.44;5027873;28;20048;-57
2022/04/27 06:15:44;;;;;;;38.17;28.95;;;;;;;3.77;100.00;161554.75;5030177;28;20022;-57
2022/04/27 06:18:09;;;;;;;37.13;28.83;;;;;;;4.00;100.00;161613.88;5027080;28;20044;-57
2022/04/27 06:20:35;;;;;;;32.97;24.73;;;;;;;4.24;100.00;161675.72;5029154;28;20017;-57
2022/04/27 06:23:00;;;;;;;29.60;25.17;;;;;;;4.49;100.00;161741.59;5028887;28;20057;-57
2022/04/27 06:25:25;;;;;;;29.45;23.55;;;;;;;4.73;100.00;161804.75;5030426;28;20033;-57
2022/04/27 06:27:52;;;;;;;28.90;24.65;;;;;;;4.92;100.00;161853.19;5027612;28;20049;-57
2022/04/27 06:30:17;;;;;;;28.80;20.52;;;;;;;5.13;100.00;161906.97;5030486;28;20029;-57
2022/04/27 06:32:43;;;;;;;25.60;22.85;;;;;;;5.27;100.00;161943.31;5028736;28;20037;-57
2022/04/27 06:35:13;;;;;;;26.80;22.00;;;;;;;5.49;100.00;162002.50;5028329;28;20094;-57
2022/04/27 06:37:42;;;;;;;22.13;19.80;;;;;;;5.67;100.00;162048.22;5028473;28;20076;-56
2022/04/27 06:40:08;;;;;;;29.10;21.33;;;;;;;5.88;100.00;162103.41;5030347;28;20026;-55
2022/04/27 06:42:34;;;;;;;22.23;18.35;;;;;;;6.15;100.00;162173.41;5026977;28;20041;-55
2022/04/27 06:45:00;;;;;;;26.25;16.88;;;;;;;6.37;100.00;162230.00;5029847;28;20392;-54
2022/04/27 06:47:26;;;;;;;22.30;14.70;;;;;;;6.67;100.00;162310.72;5028356;28;20176;-55
2022/04/27 06:49:51;;;;;;;22.73;12.60;;;;;;;6.87;100.00;162361.91;5028853;28;20385;-54
2022/04/27 06:52:16;;;;;;;26.50;14.98;;;;;;;7.26;100.00;162464.22;5028442;28;20034;-54
2022/04/27 06:54:42;;;;;;;22.17;15.15;;;;;;;7.30;100.00;162473.66;5029836;28;20036;-53
2022/04/27 06:57:08;;;;;;;24.45;16.20;;;;;;;7.68;100.00;162572.03;5026328;28;20053;-55
2022/04/27 06:59:33;;;;;;;23.95;13.05;;;;;;;8.41;100.00;162763.38;5029531;28;20022;-56
2022/04/27 07:01:59;;;;;;;14.80;9.88;;;;;;;9.88;100.00;163146.41;5027979;28;20057;-55
2022/04/27 07:04:24;;;;;;;13.73;9.23;;;;;;;11.25;100.00;163505.50;5029351;28;20029;-55
2022/04/27 07:06:49;;;;;;;12.77;8.00;;;;;;;12.49;100.00;163829.75;5028762;28;20096;-55
2022/04/27 07:09:15;;;;;;;11.40;7.63;;;;;;;12.99;100.00;163962.19;5030034;28;20388;-55
2022/04/27 07:11:40;;;;;;;18.65;9.15;;;;;;;14.22;100.00;164282.78;5027852;28;20151;-55
2022/04/27 07:14:06;;;;;;;11.07;6.90;;;;;;;14.88;100.00;164457.34;5029594;28;20091;-55
2022/04/27 07:16:31;;;;;;;11.27;5.85;;;;;;;15.60;100.00;164645.50;5027871;28;20041;-55
2022/04/27 07:18:56;;;;;;;9.98;7.15;;;;;;;15.21;100.00;164544.00;5030230;28;20063;-55
2022/04/27 07:21:22;;;;;;;8.88;6.00;;;;;;;15.29;100.00;164562.94;5028173;28;20057;-56
2022/04/27 07:23:47;;;;;;;7.28;5.57;;;;;;;14.54;100.00;164368.00;5029666;28;20036;-55
2022/04/27 07:26:13;;;;;;;8.20;6.15;;;;;;;15.34;100.00;164577.78;5029724;28;20063;-55
2022/04/27 07:28:38;;;;;;;10.15;5.97;;;;;;;16.24;100.00;164812.09;5027459;28;20045;-54
2022/04/27 07:31:04;;;;;;;10.32;4.72;;;;;;;16.25;100.00;164814.81;5029514;28;20057;-56
2022/04/27 07:33:31;;;;;;;9.73;5.63;;;;;;;15.84;100.00;164707.84;5033515;28;20094;-53
2022/04/27 07:35:56;;;;;;;12.18;4.93;;;;;;;16.44;99.78;164866.28;5031830;28;20038;-52
2022/04/27 07:38:22;;;;;;;7.63;4.75;;;;;;;16.83;94.20;164967.84;5029459;28;20025;-53
2022/04/27 07:40:47;;;;;;;10.45;7.85;;;;;;;15.71;86.51;164673.94;5010739;28;20073;-53
2022/04/27 07:43:14;;;;;;;5.38;3.67;;;;;;;15.29;84.68;164562.94;5033142;28;20021;-55
2022/04/27 07:45:40;;;;;;;14.50;12.88;;;;;;;15.09;85.17;164511.47;5029538;28;20057;-55
2022/04/27 07:48:05;;;;;;;9.27;5.32;;;;;;;15.10;85.23;164512.84;5013240;28;20033;-54
2022/04/27 07:50:31;;;;;;;11.15;3.88;;;;;;;14.83;82.69;164443.84;5011285;28;20444;-55
2022/04/27 07:52:57;;;;;;;4.60;2.25;;;;;;;13.42;84.01;164073.13;5032917;28;20448;-55
2022/04/27 07:55:22;;;;;;;6.70;2.67;;;;;;;12.43;86.32;163814.91;5032057;28;20687;-55
2022/04/27 07:57:48;;;;;;;13.15;4.45;;;;;;;12.13;92.15;163736.56;5030845;28;20041;-53
2022/04/27 08:00:14;;;;;;;6.80;3.72;;;;;;;12.40;96.00;163806.78;5033147;28;20097;-55
2022/04/27 08:02:42;;;;;;;6.28;3.17;;;;;;;12.52;92.83;163837.88;5031258;28;20369;-55
2022/04/27 08:05:09;;;;;;;12.00;4.72;;;;;;;12.57;98.23;163850.03;5019786;28;20087;-55
2022/04/27 08:07:36;;;;;;;10.07;3.42;;;;;;;12.53;98.36;163840.59;5030644;28;20511;-55
2022/04/27 08:10:09;;;;;;;10.77;4.03;;;;;;;12.90;99.04;163937.91;5032961;28;20056;-56
2022/04/27 08:12:34;;;;;;;6.97;3.70;;;;;;;13.24;99.05;164027.09;5030590;28;20040;-55
2022/04/27 08:15:00;;;;;;;9.00;4.15;;;;;;;13.40;100.00;164067.72;5031387;28;20420;-55
2022/04/27 08:17:25;;;;;;;3.92;3.45;;;;;;;13.32;94.28;164048.75;5030765;28;20034;-55
2022/04/27 08:21:13;;;;;;;7.38;3.83;;;;;;;13.41;93.14;164070.44;5032090;28;20036;-55
2022/04/27 08:22:35;;;;;;;6.10;3.38;;;;;;;13.44;98.89;164078.56;5030295;28;20048;-55
2022/04/27 08:25:01;;;;;;;7.03;4.32;;;;;;;13.56;92.13;164111.00;5032683;28;20030;-55
2022/04/27 08:27:26;;;;;;;8.48;2.78;;;;;;;12.79;91.14;163908.13;5030198;28;20042;-55
2022/04/27 08:29:51;;;;;;;4.03;2.63;;;;;;;12.22;91.74;163759.50;5032385;28;20040;-53
2022/04/27 08:32:17;;;;;;;7.82;2.25;;;;;;;11.42;94.91;163551.44;5031330;28;20048;-52
2022/04/27 08:34:42;;;;;;;6.28;2.53;;;;;;;10.94;100.00;163424.50;5031241;28;20475;-55
2022/04/27 08:37:07;;;;;;;7.47;2.55;;;;;;;11.04;100.00;163451.50;5030351;28;20416;-55
2022/04/27 08:39:33;;;;;;;2.60;2.33;;;;;;;11.41;99.27;163548.75;5032250;28;20089;-55
2022/04/27 08:41:58;;;;;;;4.45;2.78;;;;;;;11.98;100.00;163697.34;5028822;28;20041;-55
2022/04/27 08:44:23;;;;;;;7.35;3.72;;;;;;;12.86;93.15;163927.06;5030560;28;20021;-55
2022/04/27 08:46:50;;;;;;;7.68;2.50;;;;;;;13.89;90.43;164196.19;5030234;28;20045;-55
2022/04/27 08:49:16;;;;;;;4.90;2.45;;;;;;;14.16;89.59;164267.88;5031246;28;20087;-55
2022/04/27 08:51:41;;;;;;;4.82;2.70;;;;;;;14.42;87.89;164335.50;5030632;28;20448;-55
2022/04/27 08:54:06;;;;;;;3.47;2.42;;;;;;;13.97;83.10;164217.84;5030580;28;20033;-54
2022/04/27 08:56:35;;;;;;;3.97;2.58;;;;;;;13.12;88.64;163996.00;5029645;28;20038;-55
2022/04/27 08:59:02;;;;;;;;;;;;;;;12.17;88.63;163746.00;5031938;28;20032;-55
2022/04/27 09:01:28;;;;;;;4.68;2.40;;;;;;;11.41;90.11;163548.75;5027313;28;19921;-55
2022/04/27 09:04:12;;;;;;;3.90;2.17;;;;;;;11.49;94.61;163567.63;5030780;28;20388;-55
2022/04/27 09:06:41;;;;;;;11.00;3.25;;;;;;;11.55;100.00;163583.84;5030107;28;20497;-53
2022/04/27 09:09:10;;;;;;;4.25;2.92;;;;;;;12.03;92.96;163709.50;5031464;28;20477;-55
2022/04/27 09:11:37;;;;;;;10.77;8.52;;;;;;;12.90;90.91;163937.91;5029562;28;20511;-54
2022/04/27 09:14:04;;;;;;;5.78;3.38;;;;;;;13.38;87.60;164062.25;5031987;28;20076;-54
2022/04/27 09:22:23;;;;;;;5.22;2.22;;;;;;;16.74;72.63;164944.84;5029808;28;20117;-54
2022/04/27 09:24:54;;;;;;;3.60;2.20;;;;;;;16.76;69.47;164950.28;5030962;28;20033;-53
2022/04/27 09:27:21;;;;;;;3.80;2.00;;;;;;;16.27;72.87;164820.25;5029428;28;20436;-55
2022/04/27 09:30:01;;;;;;;5.20;2.10;;;;;;;15.73;72.59;164679.38;5031111;28;20017;-54
2022/04/27 09:32:28;;;;;;;7.38;3.10;;;;;;;14.80;70.01;164434.34;5028628;28;20041;-54
2022/04/27 09:34:54;;;;;;;6.53;2.17;;;;;;;13.55;72.21;164108.28;5031489;28;20056;-54
2022/04/27 09:37:22;;;;;;;3.22;2.80;;;;;;;13.42;74.79;164073.13;5029850;28;20038;-55
2022/04/27 09:40:07;;;;;;;8.90;2.70;;;;;;;13.39;78.01;164066.38;5028721;28;20025;-55
2022/04/27 09:42:37;;;;;;;6.88;4.00;;;;;;;14.12;80.33;164258.41;5026156;28;20050;-54
2022/04/27 09:45:26;;;;;;;10.63;4.45;;;;;;;14.56;80.99;164373.38;5027724;28;20029;-55
2022/04/27 09:48:03;;;;;;;4.22;2.17;;;;;;;14.42;68.91;164335.50;5025303;28;20051;-55
2022/04/27 09:50:48;;;;;;;7.07;2.53;;;;;;;14.94;72.64;164470.88;5028348;28;20535;-53
2022/04/27 09:53:18;;;;;;;3.33;2.50;;;;;;;14.89;73.55;164460.06;5030176;28;20076;-55
2022/04/27 09:55:45;;;;;;;2.50;2.30;;;;;;;14.69;74.06;164405.94;5028222;28;20028;-55
2022/04/27 09:58:13;;;;;;;7.15;2.30;;;;;;;13.70;72.16;164146.16;5030805;28;20021;-55
2022/04/27 10:00:42;;;;;;;2.50;2.30;;;;;;;13.03;72.55;163971.66;5027687;28;20493;-55
2022/04/27 10:03:08;;;;;;;4.45;3.35;;;;;;;12.32;73.41;163786.50;5030156;28;20393;-55
2022/04/27 10:05:33;;;;;;;3.47;3.17;;;;;;;12.52;77.04;163837.88;5028388;28;20037;-55
2022/04/27 10:08:01;;;;;;;11.52;5.35;;;;;;;13.27;81.69;164035.22;5030633;28;20030;-55
2022/04/27 10:10:27;;;;;;;6.00;3.17;;;;;;;13.70;82.58;164146.16;5030076;28;20103;-55
2022/04/27 10:12:53;;;;;;;11.32;5.47;;;;;;;14.16;77.54;164267.88;5029191;28;20662;-55
2022/04/27 10:15:19;;;;;;;5.25;3.80;;;;;;;14.35;76.68;164316.56;5030490;28;20142;-54
2022/04/27 10:17:45;;;;;;;4.15;3.75;;;;;;;14.76;73.72;164424.88;5028701;28;20057;-55
2022/04/27 10:20:30;;;;;;;4.15;2.97;;;;;;;15.22;79.40;164546.72;5030511;28;20029;-55
2022/04/27 10:23:34;;;;;;;3.30;3.00;;;;;;;14.74;73.24;164419.47;5009050;28;20137;-55
2022/04/27 10:26:10;;;;;;;8.95;6.25;;;;;;;15.38;73.64;164588.66;4986095;28;20042;-55
2022/04/27 10:28:57;;;;;;;7.13;4.70;;;;;;;14.91;70.45;164464.09;4990348;28;20038;-55
2022/04/27 10:31:40;;;;;;;4.03;2.63;;;;;;;14.74;71.28;164419.47;5001018;28;20050;-55
2022/04/27 10:34:17;;;;;;;5.88;2.65;;;;;;;14.19;71.53;164275.97;5010523;28;20513;-55
2022/04/27 10:36:47;;;;;;;3.72;3.40;;;;;;;14.16;73.09;164267.88;5018792;28;20096;-55
2022/04/27 10:39:12;;;;;;;3.03;2.65;;;;;;;14.81;74.18;164438.41;5030129;28;20029;-55
2022/04/27 10:42:02;;;;;;;3.05;2.78;;;;;;;14.80;72.80;164434.34;5019097;28;20121;-54
2022/04/27 10:44:46;;;;;;;5.30;3.40;;;;;;;15.00;68.50;164487.16;5010063;28;20499;-55
2022/04/27 10:47:17;;;;;;;3.15;2.83;;;;;;;15.57;70.01;164636.03;5008651;28;20034;-54
2022/04/27 10:49:43;;;;;;;5.10;2.33;;;;;;;15.61;69.32;164646.84;5010457;28;20057;-55
2022/04/27 10:52:10;;;;;;;3.80;2.88;;;;;;;15.92;70.40;164728.13;5008915;28;20038;-55
2022/04/27 10:54:37;;;;;;;6.63;2.92;;;;;;;15.71;69.63;164673.94;5010043;28;20153;-54
2022/04/27 10:57:14;;;;;;;6.30;3.20;;;;;;;15.91;69.57;164725.41;5009076;28;20096;-55
2022/04/27 10:59:49;;;;;;;4.47;2.45;;;;;;;16.55;67.09;164893.38;5010330;28;20025;-55
2022/04/27 11:02:34;;;;;;;3.25;2.35;;;;;;;16.32;62.32;164833.78;5008595;28;20056;-55
2022/04/27 11:05:00;;;;;;;23.65;2.88;;;;;;;16.67;64.61;164925.88;5011534;28;20037;-55
2022/04/27 11:07:34;;;;;;;6.47;2.40;;;;;;;17.23;63.61;165073.63;5012826;28;20064;-54
2022/04/27 11:10:10;;;;;;;2.58;2.35;;;;;;;16.21;63.08;164803.97;5014234;28;20029;-54
2022/04/27 11:12:36;;;;;;;4.20;3.25;;;;;;;16.12;64.91;164782.28;5013287;28;20041;-54
2022/04/27 11:15:03;;;;;;;4.82;3.13;;;;;;;16.70;67.19;164932.66;5014177;28;20045;-54
2022/04/27 11:17:29;;;;;;;6.43;2.85;;;;;;;16.68;62.47;164928.59;5012539;28;20087;-55
2022/04/27 11:19:54;;;;;;;8.07;3.13;;;;;;;16.60;67.33;164906.91;5014482;28;20026;-55
2022/04/27 11:22:20;;;;;;;5.53;3.10;;;;;;;16.32;67.28;164833.78;5012341;28;20041;-54
2022/04/27 11:24:48;;;;;;;5.38;3.70;;;;;;;16.00;63.98;164749.81;5010912;28;20116;-53
2022/04/27 11:27:21;;;;;;;2.50;2.30;;;;;;;15.71;66.19;164673.94;4994444;28;20046;-54
2022/04/27 11:29:47;;;;;;;7.10;3.33;;;;;;;15.86;66.00;164714.59;5014324;28;20033;-54
2022/04/27 11:32:12;;;;;;;5.03;3.53;;;;;;;16.25;66.76;164814.81;5012637;28;20566;-54